sensor_id;sensor_type;location;lat;lon;timestamp;temperature;humidity
67364;HTU21D;54250;45.572;38.086;2023-05-31T00:01:31;16.80;97.73
67364;HTU21D;54250;45.572;38.086;2023-05-31T00:03:57;16.78;97.80
67364;HTU21D;54250;45.572;38.086;2023-05-31T00:06:23;16.74;97.81
67364;HTU21D;54250;45.572;38.086;2023-05-31T00:08:49;16.71;97.89
67364;HTU21D;54250;45.572;38.086;2023-05-31T00:11:15;16.66;98.01
67364;HTU21D;54250;45.572;38.086;2023-05-31T00:13:41;16.64;98.03
67364;HTU21D;54250;45.572;38.086;2023-05-31T00:16:09;16.60;98.12
67364;HTU21D;54250;45.572;38.086;2023-05-31T00:18:35;16.57;98.22
67364;HTU21D;54250;45.572;38.086;2023-05-31T00:21:02;16.51;98.18
67364;HTU21D;54250;45.572;38.086;2023-05-31T00:23:28;16.47;98.24
67364;HTU21D;54250;45.572;38.086;2023-05-31T00:25:54;16.43;98.24
67364;HTU21D;54250;45.572;38.086;2023-05-31T00:28:20;16.40;98.31
67364;HTU21D;54250;45.572;38.086;2023-05-31T00:30:46;16.36;98.35
67364;HTU21D;54250;45.572;38.086;2023-05-31T00:33:12;16.31;98.32
67364;HTU21D;54250;45.572;38.086;2023-05-31T00:35:38;16.27;98.38
67364;HTU21D;54250;45.572;38.086;2023-05-31T00:38:05;16.25;98.39
67364;HTU21D;54250;45.572;38.086;2023-05-31T00:40:32;16.21;98.36
67364;HTU21D;54250;45.572;38.086;2023-05-31T00:42:59;16.18;98.39
67364;HTU21D;54250;45.572;38.086;2023-05-31T00:45:25;16.14;98.40
67364;HTU21D;54250;45.572;38.086;2023-05-31T00:47:51;16.11;98.45
67364;HTU21D;54250;45.572;38.086;2023-05-31T00:50:17;16.06;98.44
67364;HTU21D;54250;45.572;38.086;2023-05-31T00:52:46;16.04;98.42
67364;HTU21D;54250;45.572;38.086;2023-05-31T00:55:13;15.98;98.49
67364;HTU21D;54250;45.572;38.086;2023-05-31T00:57:40;15.95;98.54
67364;HTU21D;54250;45.572;38.086;2023-05-31T01:00:08;15.89;98.57
67364;HTU21D;54250;45.572;38.086;2023-05-31T01:02:38;15.84;98.65
67364;HTU21D;54250;45.572;38.086;2023-05-31T01:05:05;15.81;98.72
67364;HTU21D;54250;45.572;38.086;2023-05-31T01:07:31;15.75;98.76
67364;HTU21D;54250;45.572;38.086;2023-05-31T01:09:58;15.71;98.80
67364;HTU21D;54250;45.572;38.086;2023-05-31T01:13:05;15.67;98.71
67364;HTU21D;54250;45.572;38.086;2023-05-31T01:15:42;15.61;98.72
67364;HTU21D;54250;45.572;38.086;2023-05-31T01:18:14;15.56;98.80
67364;HTU21D;54250;45.572;38.086;2023-05-31T01:20:45;15.52;98.82
67364;HTU21D;54250;45.572;38.086;2023-05-31T01:28:45;15.41;98.94
67364;HTU21D;54250;45.572;38.086;2023-05-31T01:31:14;15.42;98.93
67364;HTU21D;54250;45.572;38.086;2023-05-31T01:33:43;15.41;98.87
67364;HTU21D;54250;45.572;38.086;2023-05-31T01:36:09;15.38;98.88
67364;HTU21D;54250;45.572;38.086;2023-05-31T01:38:35;15.39;98.95
67364;HTU21D;54250;45.572;38.086;2023-05-31T01:41:02;15.41;98.87
67364;HTU21D;54250;45.572;38.086;2023-05-31T01:43:35;15.46;98.74
67364;HTU21D;54250;45.572;38.086;2023-05-31T01:46:02;15.53;98.55
67364;HTU21D;54250;45.572;38.086;2023-05-31T01:48:29;15.59;98.42
67364;HTU21D;54250;45.572;38.086;2023-05-31T01:50:57;15.65;98.36
67364;HTU21D;54250;45.572;38.086;2023-05-31T01:53:25;15.70;98.33
67364;HTU21D;54250;45.572;38.086;2023-05-31T01:55:52;15.73;98.29
67364;HTU21D;54250;45.572;38.086;2023-05-31T01:58:20;15.74;98.31
67364;HTU21D;54250;45.572;38.086;2023-05-31T02:00:48;15.77;98.35
67364;HTU21D;54250;45.572;38.086;2023-05-31T02:03:15;15.78;98.40
67364;HTU21D;54250;45.572;38.086;2023-05-31T02:05:55;15.81;98.46
67364;HTU21D;54250;45.572;38.086;2023-05-31T02:08:22;15.81;98.51
67364;HTU21D;54250;45.572;38.086;2023-05-31T02:10:49;15.77;98.58
67364;HTU21D;54250;45.572;38.086;2023-05-31T02:13:15;15.77;98.62
67364;HTU21D;54250;45.572;38.086;2023-05-31T02:15:41;15.80;98.65
67364;HTU21D;54250;45.572;38.086;2023-05-31T02:18:07;15.83;98.63
67364;HTU21D;54250;45.572;38.086;2023-05-31T02:20:34;15.86;98.61
67364;HTU21D;54250;45.572;38.086;2023-05-31T02:23:00;15.90;98.47
67364;HTU21D;54250;45.572;38.086;2023-05-31T02:25:26;15.95;98.46
67364;HTU21D;54250;45.572;38.086;2023-05-31T02:27:52;15.99;98.46
67364;HTU21D;54250;45.572;38.086;2023-05-31T02:30:18;16.05;98.39
67364;HTU21D;54250;45.572;38.086;2023-05-31T02:32:44;16.15;98.29
67364;HTU21D;54250;45.572;38.086;2023-05-31T02:35:11;16.20;98.21
67364;HTU21D;54250;45.572;38.086;2023-05-31T02:37:38;16.25;98.13
67364;HTU21D;54250;45.572;38.086;2023-05-31T02:40:06;16.33;98.09
67364;HTU21D;54250;45.572;38.086;2023-05-31T02:42:38;16.36;98.10
67364;HTU21D;54250;45.572;38.086;2023-05-31T02:45:05;16.37;98.10
67364;HTU21D;54250;45.572;38.086;2023-05-31T02:47:33;16.37;98.23
67364;HTU21D;54250;45.572;38.086;2023-05-31T02:50:00;16.39;98.27
67364;HTU21D;54250;45.572;38.086;2023-05-31T02:52:27;16.40;98.38
67364;HTU21D;54250;45.572;38.086;2023-05-31T02:55:02;16.43;98.36
67364;HTU21D;54250;45.572;38.086;2023-05-31T02:57:35;16.41;98.47
67364;HTU21D;54250;45.572;38.086;2023-05-31T03:00:02;16.43;98.51
67364;HTU21D;54250;45.572;38.086;2023-05-31T03:02:47;16.46;98.48
67364;HTU21D;54250;45.572;38.086;2023-05-31T03:05:23;16.52;98.40
67364;HTU21D;54250;45.572;38.086;2023-05-31T03:07:49;16.54;98.36
67364;HTU21D;54250;45.572;38.086;2023-05-31T03:10:15;16.59;98.32
67364;HTU21D;54250;45.572;38.086;2023-05-31T03:12:42;16.63;98.20
67364;HTU21D;54250;45.572;38.086;2023-05-31T03:15:09;16.63;98.28
67364;HTU21D;54250;45.572;38.086;2023-05-31T03:17:36;16.66;98.34
67364;HTU21D;54250;45.572;38.086;2023-05-31T03:20:06;16.72;98.29
67364;HTU21D;54250;45.572;38.086;2023-05-31T03:22:38;16.79;98.15
67364;HTU21D;54250;45.572;38.086;2023-05-31T03:25:06;16.86;98.10
67364;HTU21D;54250;45.572;38.086;2023-05-31T03:27:32;16.88;98.06
67364;HTU21D;54250;45.572;38.086;2023-05-31T03:29:59;16.86;98.13
67364;HTU21D;54250;45.572;38.086;2023-05-31T03:32:26;16.90;98.21
67364;HTU21D;54250;45.572;38.086;2023-05-31T03:34:52;16.98;98.14
67364;HTU21D;54250;45.572;38.086;2023-05-31T03:37:18;17.03;98.07
67364;HTU21D;54250;45.572;38.086;2023-05-31T03:39:48;17.10;98.00
67364;HTU21D;54250;45.572;38.086;2023-05-31T03:42:28;17.21;97.91
67364;HTU21D;54250;45.572;38.086;2023-05-31T03:44:57;17.33;97.69
67364;HTU21D;54250;45.572;38.086;2023-05-31T03:47:23;17.44;97.67
67364;HTU21D;54250;45.572;38.086;2023-05-31T03:49:50;17.54;97.49
67364;HTU21D;54250;45.572;38.086;2023-05-31T03:52:16;17.67;97.38
67364;HTU21D;54250;45.572;38.086;2023-05-31T03:54:42;17.85;97.16
67364;HTU21D;54250;45.572;38.086;2023-05-31T03:57:08;18.12;96.86
67364;HTU21D;54250;45.572;38.086;2023-05-31T03:59:34;18.35;96.34
67364;HTU21D;54250;45.572;38.086;2023-05-31T04:02:02;18.44;96.48
67364;HTU21D;54250;45.572;38.086;2023-05-31T04:04:28;19.07;94.95
67364;HTU21D;54250;45.572;38.086;2023-05-31T04:06:55;19.48;95.08
67364;HTU21D;54250;45.572;38.086;2023-05-31T04:09:22;20.63;91.22
67364;HTU21D;54250;45.572;38.086;2023-05-31T04:11:51;20.75;91.79
67364;HTU21D;54250;45.572;38.086;2023-05-31T04:14:17;21.25;91.02
67364;HTU21D;54250;45.572;38.086;2023-05-31T04:16:45;21.08;91.70
67364;HTU21D;54250;45.572;38.086;2023-05-31T04:19:11;20.84;93.07
67364;HTU21D;54250;45.572;38.086;2023-05-31T04:21:37;20.78;93.72
67364;HTU21D;54250;45.572;38.086;2023-05-31T04:24:03;21.00;93.59
67364;HTU21D;54250;45.572;38.086;2023-05-31T04:26:31;22.68;88.90
67364;HTU21D;54250;45.572;38.086;2023-05-31T04:29:00;24.56;83.20
67364;HTU21D;54250;45.572;38.086;2023-05-31T04:31:27;26.21;78.85
67364;HTU21D;54250;45.572;38.086;2023-05-31T04:33:58;27.83;75.67
67364;HTU21D;54250;45.572;38.086;2023-05-31T04:36:26;29.42;72.57
67364;HTU21D;54250;45.572;38.086;2023-05-31T04:38:53;30.92;69.86
67364;HTU21D;54250;45.572;38.086;2023-05-31T04:41:24;31.80;67.66
67364;HTU21D;54250;45.572;38.086;2023-05-31T04:43:55;30.70;69.63
67364;HTU21D;54250;45.572;38.086;2023-05-31T04:46:24;29.50;72.77
67364;HTU21D;54250;45.572;38.086;2023-05-31T04:48:51;28.42;74.93
67364;HTU21D;54250;45.572;38.086;2023-05-31T04:51:19;27.80;76.12
67364;HTU21D;54250;45.572;38.086;2023-05-31T04:53:45;27.29;76.89
67364;HTU21D;54250;45.572;38.086;2023-05-31T04:56:15;26.96;77.05
67364;HTU21D;54250;45.572;38.086;2023-05-31T04:58:41;26.41;77.69
67364;HTU21D;54250;45.572;38.086;2023-05-31T05:01:08;25.67;78.79
67364;HTU21D;54250;45.572;38.086;2023-05-31T05:03:42;25.16;79.84
67364;HTU21D;54250;45.572;38.086;2023-05-31T05:06:15;24.50;80.81
67364;HTU21D;54250;45.572;38.086;2023-05-31T05:08:42;24.00;81.75
67364;HTU21D;54250;45.572;38.086;2023-05-31T05:11:09;23.60;82.35
67364;HTU21D;54250;45.572;38.086;2023-05-31T05:13:35;23.40;82.61
67364;HTU21D;54250;45.572;38.086;2023-05-31T05:16:01;23.16;82.80
67364;HTU21D;54250;45.572;38.086;2023-05-31T05:18:31;23.03;83.00
67364;HTU21D;54250;45.572;38.086;2023-05-31T05:20:57;22.90;83.22
67364;HTU21D;54250;45.572;38.086;2023-05-31T05:23:26;22.85;83.25
67364;HTU21D;54250;45.572;38.086;2023-05-31T05:25:54;22.87;83.02
67364;HTU21D;54250;45.572;38.086;2023-05-31T05:28:21;22.75;83.22
67364;HTU21D;54250;45.572;38.086;2023-05-31T05:30:49;22.76;83.31
67364;HTU21D;54250;45.572;38.086;2023-05-31T05:33:16;22.66;83.26
67364;HTU21D;54250;45.572;38.086;2023-05-31T05:35:43;22.64;83.42
67364;HTU21D;54250;45.572;38.086;2023-05-31T05:38:09;22.68;83.52
67364;HTU21D;54250;45.572;38.086;2023-05-31T05:40:36;22.79;83.26
67364;HTU21D;54250;45.572;38.086;2023-05-31T05:43:02;22.69;83.42
67364;HTU21D;54250;45.572;38.086;2023-05-31T05:45:33;22.58;83.74
67364;HTU21D;54250;45.572;38.086;2023-05-31T05:47:59;22.46;83.93
67364;HTU21D;54250;45.572;38.086;2023-05-31T05:50:25;22.31;84.16
67364;HTU21D;54250;45.572;38.086;2023-05-31T05:52:52;22.22;84.40
67364;HTU21D;54250;45.572;38.086;2023-05-31T05:55:18;22.04;84.65
67364;HTU21D;54250;45.572;38.086;2023-05-31T05:57:46;21.98;85.01
67364;HTU21D;54250;45.572;38.086;2023-05-31T06:00:47;22.04;84.84
67364;HTU21D;54250;45.572;38.086;2023-05-31T06:03:14;21.94;85.09
67364;HTU21D;54250;45.572;38.086;2023-05-31T06:05:42;21.82;85.40
67364;HTU21D;54250;45.572;38.086;2023-05-31T06:08:09;21.80;85.51
67364;HTU21D;54250;45.572;38.086;2023-05-31T06:10:36;21.75;85.48
67364;HTU21D;54250;45.572;38.086;2023-05-31T06:13:04;21.68;85.57
67364;HTU21D;54250;45.572;38.086;2023-05-31T06:15:33;21.64;85.52
67364;HTU21D;54250;45.572;38.086;2023-05-31T06:17:59;21.69;85.56
67364;HTU21D;54250;45.572;38.086;2023-05-31T06:20:26;21.80;85.20
67364;HTU21D;54250;45.572;38.086;2023-05-31T06:22:52;21.89;85.07
67364;HTU21D;54250;45.572;38.086;2023-05-31T06:25:22;21.96;84.87
67364;HTU21D;54250;45.572;38.086;2023-05-31T06:27:49;22.18;84.33
67364;HTU21D;54250;45.572;38.086;2023-05-31T06:30:16;22.29;84.15
67364;HTU21D;54250;45.572;38.086;2023-05-31T06:32:45;22.44;84.17
67364;HTU21D;54250;45.572;38.086;2023-05-31T06:35:18;22.83;83.26
67364;HTU21D;54250;45.572;38.086;2023-05-31T06:37:44;23.29;82.08
67364;HTU21D;54250;45.572;38.086;2023-05-31T06:40:12;23.83;80.88
67364;HTU21D;54250;45.572;38.086;2023-05-31T06:42:39;24.54;79.48
67364;HTU21D;54250;45.572;38.086;2023-05-31T06:45:24;25.07;77.06
67364;HTU21D;54250;45.572;38.086;2023-05-31T06:47:53;25.28;76.87
67364;HTU21D;54250;45.572;38.086;2023-05-31T06:50:22;25.43;76.42
67364;HTU21D;54250;45.572;38.086;2023-05-31T06:52:51;25.89;75.81
67364;HTU21D;54250;45.572;38.086;2023-05-31T06:55:35;27.26;72.93
67364;HTU21D;54250;45.572;38.086;2023-05-31T06:58:01;28.06;71.11
67364;HTU21D;54250;45.572;38.086;2023-05-31T07:00:31;28.67;69.23
67364;HTU21D;54250;45.572;38.086;2023-05-31T07:02:57;28.59;68.77
67364;HTU21D;54250;45.572;38.086;2023-05-31T07:05:25;28.31;68.74
67364;HTU21D;54250;45.572;38.086;2023-05-31T07:07:52;28.35;68.86
67364;HTU21D;54250;45.572;38.086;2023-05-31T07:10:18;29.85;65.00
67364;HTU21D;54250;45.572;38.086;2023-05-31T07:12:45;30.53;63.72
67364;HTU21D;54250;45.572;38.086;2023-05-31T07:15:11;30.10;64.66
67364;HTU21D;54250;45.572;38.086;2023-05-31T07:17:38;29.88;65.73
67364;HTU21D;54250;45.572;38.086;2023-05-31T07:20:04;29.93;65.82
67364;HTU21D;54250;45.572;38.086;2023-05-31T07:22:32;29.46;65.78
67364;HTU21D;54250;45.572;38.086;2023-05-31T07:24:58;28.70;67.06
67364;HTU21D;54250;45.572;38.086;2023-05-31T07:27:24;28.80;67.30
67364;HTU21D;54250;45.572;38.086;2023-05-31T07:29:50;30.01;64.18
67364;HTU21D;54250;45.572;38.086;2023-05-31T07:32:16;31.50;61.14
67364;HTU21D;54250;45.572;38.086;2023-05-31T07:34:42;31.53;60.96
67364;HTU21D;54250;45.572;38.086;2023-05-31T07:37:08;30.16;62.86
67364;HTU21D;54250;45.572;38.086;2023-05-31T07:39:35;29.73;64.37
67364;HTU21D;54250;45.572;38.086;2023-05-31T07:42:01;29.61;64.34
67364;HTU21D;54250;45.572;38.086;2023-05-31T07:44:27;29.29;64.84
67364;HTU21D;54250;45.572;38.086;2023-05-31T07:46:53;28.69;65.77
67364;HTU21D;54250;45.572;38.086;2023-05-31T07:49:19;28.39;65.40
67364;HTU21D;54250;45.572;38.086;2023-05-31T07:51:45;28.61;65.30
67364;HTU21D;54250;45.572;38.086;2023-05-31T07:54:11;29.09;63.48
67364;HTU21D;54250;45.572;38.086;2023-05-31T07:56:37;29.83;61.83
67364;HTU21D;54250;45.572;38.086;2023-05-31T07:59:04;30.01;61.45
67364;HTU21D;54250;45.572;38.086;2023-05-31T08:01:31;29.38;62.90
67364;HTU21D;54250;45.572;38.086;2023-05-31T08:04:05;29.31;63.72
67364;HTU21D;54250;45.572;38.086;2023-05-31T08:06:32;29.45;63.63
67364;HTU21D;54250;45.572;38.086;2023-05-31T08:08:59;29.53;63.20
67364;HTU21D;54250;45.572;38.086;2023-05-31T08:11:25;28.73;63.53
67364;HTU21D;54250;45.572;38.086;2023-05-31T08:13:51;28.28;64.76
67364;HTU21D;54250;45.572;38.086;2023-05-31T08:16:17;27.96;65.12
67364;HTU21D;54250;45.572;38.086;2023-05-31T08:18:44;27.74;65.42
67364;HTU21D;54250;45.572;38.086;2023-05-31T08:21:14;27.57;65.59
67364;HTU21D;54250;45.572;38.086;2023-05-31T08:23:41;27.91;65.17
67364;HTU21D;54250;45.572;38.086;2023-05-31T08:26:08;28.23;64.14
67364;HTU21D;54250;45.572;38.086;2023-05-31T08:28:35;28.38;63.64
67364;HTU21D;54250;45.572;38.086;2023-05-31T08:31:01;28.38;63.73
67364;HTU21D;54250;45.572;38.086;2023-05-31T08:33:28;29.14;63.42
67364;HTU21D;54250;45.572;38.086;2023-05-31T08:35:58;30.16;60.74
67364;HTU21D;54250;45.572;38.086;2023-05-31T08:38:27;30.44;59.60
67364;HTU21D;54250;45.572;38.086;2023-05-31T08:40:54;30.45;59.67
67364;HTU21D;54250;45.572;38.086;2023-05-31T08:43:21;30.15;59.72
67364;HTU21D;54250;45.572;38.086;2023-05-31T08:45:49;30.09;59.73
67364;HTU21D;54250;45.572;38.086;2023-05-31T08:50:48;30.46;59.99
67364;HTU21D;54250;45.572;38.086;2023-05-31T08:53:17;30.24;59.51
67364;HTU21D;54250;45.572;38.086;2023-05-31T08:55:45;30.09;59.68
67364;HTU21D;54250;45.572;38.086;2023-05-31T08:58:14;30.53;59.01
67364;HTU21D;54250;45.572;38.086;2023-05-31T09:00:41;30.97;57.64
67364;HTU21D;54250;45.572;38.086;2023-05-31T09:03:09;31.07;56.95
67364;HTU21D;54250;45.572;38.086;2023-05-31T09:05:36;30.38;58.29
67364;HTU21D;54250;45.572;38.086;2023-05-31T09:08:02;29.93;59.08
67364;HTU21D;54250;45.572;38.086;2023-05-31T09:10:29;29.33;60.23
67364;HTU21D;54250;45.572;38.086;2023-05-31T09:12:55;28.58;61.57
67364;HTU21D;54250;45.572;38.086;2023-05-31T09:15:24;28.08;62.66
67364;HTU21D;54250;45.572;38.086;2023-05-31T09:17:51;27.71;63.85
67364;HTU21D;54250;45.572;38.086;2023-05-31T09:20:18;28.02;63.07
67364;HTU21D;54250;45.572;38.086;2023-05-31T09:22:48;27.95;62.37
67364;HTU21D;54250;45.572;38.086;2023-05-31T09:25:17;27.97;62.58
67364;HTU21D;54250;45.572;38.086;2023-05-31T09:27:43;28.15;62.34
67364;HTU21D;54250;45.572;38.086;2023-05-31T09:30:11;28.41;61.86
67364;HTU21D;54250;45.572;38.086;2023-05-31T09:32:38;28.82;61.01
67364;HTU21D;54250;45.572;38.086;2023-05-31T09:35:17;28.94;61.10
67364;HTU21D;54250;45.572;38.086;2023-05-31T09:37:48;29.36;60.48
67364;HTU21D;54250;45.572;38.086;2023-05-31T09:40:21;29.62;59.89
67364;HTU21D;54250;45.572;38.086;2023-05-31T09:42:47;29.56;60.22
67364;HTU21D;54250;45.572;38.086;2023-05-31T09:45:15;29.03;60.84
67364;HTU21D;54250;45.572;38.086;2023-05-31T09:47:41;28.54;61.68
67364;HTU21D;54250;45.572;38.086;2023-05-31T09:50:23;27.85;62.48
67364;HTU21D;54250;45.572;38.086;2023-05-31T09:52:56;27.09;64.03
67364;HTU21D;54250;45.572;38.086;2023-05-31T09:55:23;26.38;65.93
67364;HTU21D;54250;45.572;38.086;2023-05-31T09:57:52;24.73;69.66
67364;HTU21D;54250;45.572;38.086;2023-05-31T10:00:18;23.10;74.01
67364;HTU21D;54250;45.572;38.086;2023-05-31T10:02:51;22.26;75.58
67364;HTU21D;54250;45.572;38.086;2023-05-31T10:05:19;21.88;76.37
67364;HTU21D;54250;45.572;38.086;2023-05-31T10:07:47;21.63;77.18
67364;HTU21D;54250;45.572;38.086;2023-05-31T10:10:14;21.36;77.72
67364;HTU21D;54250;45.572;38.086;2023-05-31T10:13:05;20.88;78.92
67364;HTU21D;54250;45.572;38.086;2023-05-31T10:15:31;20.29;79.97
67364;HTU21D;54250;45.572;38.086;2023-05-31T10:18:02;19.92;80.75
67364;HTU21D;54250;45.572;38.086;2023-05-31T10:20:43;19.70;81.25
67364;HTU21D;54250;45.572;38.086;2023-05-31T10:23:22;19.65;81.36
67364;HTU21D;54250;45.572;38.086;2023-05-31T10:26:16;19.77;81.43
67364;HTU21D;54250;45.572;38.086;2023-05-31T10:28:59;20.17;81.06
67364;HTU21D;54250;45.572;38.086;2023-05-31T10:31:31;20.58;80.36
67364;HTU21D;54250;45.572;38.086;2023-05-31T10:34:07;20.99;80.38
67364;HTU21D;54250;45.572;38.086;2023-05-31T10:36:36;21.47;79.68
67364;HTU21D;54250;45.572;38.086;2023-05-31T10:39:16;21.85;79.77
67364;HTU21D;54250;45.572;38.086;2023-05-31T10:41:50;22.12;79.26
67364;HTU21D;54250;45.572;38.086;2023-05-31T10:44:19;22.14;78.56
67364;HTU21D;54250;45.572;38.086;2023-05-31T10:46:50;22.44;79.62
67364;HTU21D;54250;45.572;38.086;2023-05-31T10:49:22;23.02;78.58
67364;HTU21D;54250;45.572;38.086;2023-05-31T10:51:49;23.47;77.98
67364;HTU21D;54250;45.572;38.086;2023-05-31T10:54:26;24.16;77.23
67364;HTU21D;54250;45.572;38.086;2023-05-31T10:56:57;24.68;75.92
67364;HTU21D;54250;45.572;38.086;2023-05-31T10:59:25;25.13;75.07
67364;HTU21D;54250;45.572;38.086;2023-05-31T11:01:52;25.54;74.60
67364;HTU21D;54250;45.572;38.086;2023-05-31T11:04:24;26.24;73.50
67364;HTU21D;54250;45.572;38.086;2023-05-31T11:06:55;26.38;73.09
67364;HTU21D;54250;45.572;38.086;2023-05-31T11:09:38;26.46;72.41
67364;HTU21D;54250;45.572;38.086;2023-05-31T11:12:05;26.66;72.51
67364;HTU21D;54250;45.572;38.086;2023-05-31T11:14:32;26.94;72.59
67364;HTU21D;54250;45.572;38.086;2023-05-31T11:19:35;27.55;71.80
67364;HTU21D;54250;45.572;38.086;2023-05-31T11:22:15;28.00;69.94
67364;HTU21D;54250;45.572;38.086;2023-05-31T11:24:52;28.18;70.34
67364;HTU21D;54250;45.572;38.086;2023-05-31T11:27:33;28.05;69.05
67364;HTU21D;54250;45.572;38.086;2023-05-31T11:30:02;27.78;69.94
67364;HTU21D;54250;45.572;38.086;2023-05-31T11:35:09;27.46;70.49
67364;HTU21D;54250;45.572;38.086;2023-05-31T11:37:39;27.45;70.19
67364;HTU21D;54250;45.572;38.086;2023-05-31T11:40:10;27.46;70.00
67364;HTU21D;54250;45.572;38.086;2023-05-31T11:42:41;27.47;69.84
67364;HTU21D;54250;45.572;38.086;2023-05-31T11:45:10;27.42;69.33
67364;HTU21D;54250;45.572;38.086;2023-05-31T11:48:08;27.55;69.28
67364;HTU21D;54250;45.572;38.086;2023-05-31T11:50:37;27.67;68.94
67364;HTU21D;54250;45.572;38.086;2023-05-31T11:53:04;27.79;69.29
67364;HTU21D;54250;45.572;38.086;2023-05-31T11:55:32;28.04;68.67
67364;HTU21D;54250;45.572;38.086;2023-05-31T11:57:59;28.46;67.88
67364;HTU21D;54250;45.572;38.086;2023-05-31T12:00:25;28.61;66.70
67364;HTU21D;54250;45.572;38.086;2023-05-31T12:02:53;28.62;67.33
67364;HTU21D;54250;45.572;38.086;2023-05-31T12:05:20;28.64;67.63
67364;HTU21D;54250;45.572;38.086;2023-05-31T12:07:48;28.61;67.66
67364;HTU21D;54250;45.572;38.086;2023-05-31T12:10:17;28.44;68.19
67364;HTU21D;54250;45.572;38.086;2023-05-31T12:12:46;28.15;68.83
67364;HTU21D;54250;45.572;38.086;2023-05-31T12:15:12;27.94;69.35
67364;HTU21D;54250;45.572;38.086;2023-05-31T12:17:40;27.82;69.60
67364;HTU21D;54250;45.572;38.086;2023-05-31T12:20:06;27.75;69.80
67364;HTU21D;54250;45.572;38.086;2023-05-31T12:22:34;27.60;70.09
67364;HTU21D;54250;45.572;38.086;2023-05-31T12:25:01;27.49;70.67
67364;HTU21D;54250;45.572;38.086;2023-05-31T12:27:27;27.52;70.37
67364;HTU21D;54250;45.572;38.086;2023-05-31T12:29:59;27.57;70.13
67364;HTU21D;54250;45.572;38.086;2023-05-31T12:32:29;27.59;69.97
67364;HTU21D;54250;45.572;38.086;2023-05-31T12:35:05;27.49;70.19
67364;HTU21D;54250;45.572;38.086;2023-05-31T12:37:38;27.26;70.49
67364;HTU21D;54250;45.572;38.086;2023-05-31T12:40:12;27.09;70.93
67364;HTU21D;54250;45.572;38.086;2023-05-31T12:42:38;26.84;71.26
67364;HTU21D;54250;45.572;38.086;2023-05-31T12:45:06;26.62;71.61
67364;HTU21D;54250;45.572;38.086;2023-05-31T12:47:33;26.45;72.14
67364;HTU21D;54250;45.572;38.086;2023-05-31T12:50:04;26.33;72.45
67364;HTU21D;54250;45.572;38.086;2023-05-31T12:52:36;26.27;72.52
67364;HTU21D;54250;45.572;38.086;2023-05-31T12:55:05;26.25;72.29
67364;HTU21D;54250;45.572;38.086;2023-05-31T12:57:32;26.17;72.44
67364;HTU21D;54250;45.572;38.086;2023-05-31T13:00:06;26.35;72.09
67364;HTU21D;54250;45.572;38.086;2023-05-31T13:02:38;26.51;71.76
67364;HTU21D;54250;45.572;38.086;2023-05-31T13:05:04;26.40;71.96
67364;HTU21D;54250;45.572;38.086;2023-05-31T13:07:31;26.37;72.18
67364;HTU21D;54250;45.572;38.086;2023-05-31T13:09:57;26.37;72.26
67364;HTU21D;54250;45.572;38.086;2023-05-31T13:12:23;26.48;72.32
67364;HTU21D;54250;45.572;38.086;2023-05-31T13:14:49;26.56;72.11
67364;HTU21D;54250;45.572;38.086;2023-05-31T13:17:17;26.58;72.29
67364;HTU21D;54250;45.572;38.086;2023-05-31T13:19:43;26.76;71.92
67364;HTU21D;54250;45.572;38.086;2023-05-31T13:22:11;26.70;72.11
67364;HTU21D;54250;45.572;38.086;2023-05-31T13:24:40;26.57;72.11
67364;HTU21D;54250;45.572;38.086;2023-05-31T13:27:06;26.41;72.56
67364;HTU21D;54250;45.572;38.086;2023-05-31T13:29:33;26.45;72.72
67364;HTU21D;54250;45.572;38.086;2023-05-31T13:31:59;26.55;72.74
67364;HTU21D;54250;45.572;38.086;2023-05-31T13:34:25;26.58;72.81
67364;HTU21D;54250;45.572;38.086;2023-05-31T13:36:51;26.47;73.41
67364;HTU21D;54250;45.572;38.086;2023-05-31T13:39:17;26.30;73.61
67364;HTU21D;54250;45.572;38.086;2023-05-31T13:41:44;26.08;74.16
67364;HTU21D;54250;45.572;38.086;2023-05-31T13:44:11;25.69;74.66
67364;HTU21D;54250;45.572;38.086;2023-05-31T13:46:40;25.32;75.34
67364;HTU21D;54250;45.572;38.086;2023-05-31T13:49:06;25.09;75.70
67364;HTU21D;54250;45.572;38.086;2023-05-31T13:51:32;25.04;75.85
67364;HTU21D;54250;45.572;38.086;2023-05-31T13:54:00;25.01;75.70
67364;HTU21D;54250;45.572;38.086;2023-05-31T13:56:26;24.92;76.08
67364;HTU21D;54250;45.572;38.086;2023-05-31T13:58:52;24.79;76.13
67364;HTU21D;54250;45.572;38.086;2023-05-31T14:01:18;24.60;76.63
67364;HTU21D;54250;45.572;38.086;2023-05-31T14:03:45;24.44;77.07
67364;HTU21D;54250;45.572;38.086;2023-05-31T14:06:11;24.31;77.40
67364;HTU21D;54250;45.572;38.086;2023-05-31T14:08:37;24.24;77.55
67364;HTU21D;54250;45.572;38.086;2023-05-31T14:11:03;24.30;77.50
67364;HTU21D;54250;45.572;38.086;2023-05-31T14:13:29;24.41;77.28
67364;HTU21D;54250;45.572;38.086;2023-05-31T14:15:55;24.54;76.98
67364;HTU21D;54250;45.572;38.086;2023-05-31T14:18:22;24.64;76.82
67364;HTU21D;54250;45.572;38.086;2023-05-31T14:20:49;24.77;76.65
67364;HTU21D;54250;45.572;38.086;2023-05-31T14:23:17;24.92;76.39
67364;HTU21D;54250;45.572;38.086;2023-05-31T14:25:43;25.05;76.08
67364;HTU21D;54250;45.572;38.086;2023-05-31T14:28:09;25.12;75.94
67364;HTU21D;54250;45.572;38.086;2023-05-31T14:30:35;25.15;75.41
67364;HTU21D;54250;45.572;38.086;2023-05-31T14:33:02;25.18;74.54
67364;HTU21D;54250;45.572;38.086;2023-05-31T14:35:29;25.16;74.41
67364;HTU21D;54250;45.572;38.086;2023-05-31T14:37:55;25.06;74.40
67364;HTU21D;54250;45.572;38.086;2023-05-31T14:40:22;24.95;74.41
67364;HTU21D;54250;45.572;38.086;2023-05-31T14:42:48;24.92;73.78
67364;HTU21D;54250;45.572;38.086;2023-05-31T14:45:14;24.84;73.43
67364;HTU21D;54250;45.572;38.086;2023-05-31T14:47:41;24.75;73.21
67364;HTU21D;54250;45.572;38.086;2023-05-31T14:50:07;24.68;73.08
67364;HTU21D;54250;45.572;38.086;2023-05-31T14:52:34;24.56;73.14
67364;HTU21D;54250;45.572;38.086;2023-05-31T14:55:00;24.41;73.35
67364;HTU21D;54250;45.572;38.086;2023-05-31T14:57:26;24.27;73.82
67364;HTU21D;54250;45.572;38.086;2023-05-31T14:59:52;24.20;73.66
67364;HTU21D;54250;45.572;38.086;2023-05-31T15:02:19;24.14;73.47
67364;HTU21D;54250;45.572;38.086;2023-05-31T15:04:45;24.13;73.44
67364;HTU21D;54250;45.572;38.086;2023-05-31T15:07:11;24.05;73.31
67364;HTU21D;54250;45.572;38.086;2023-05-31T15:09:37;23.92;73.51
67364;HTU21D;54250;45.572;38.086;2023-05-31T15:12:04;23.81;74.02
67364;HTU21D;54250;45.572;38.086;2023-05-31T15:14:30;23.76;74.30
67364;HTU21D;54250;45.572;38.086;2023-05-31T15:16:56;23.75;74.52
67364;HTU21D;54250;45.572;38.086;2023-05-31T15:19:22;23.76;74.67
67364;HTU21D;54250;45.572;38.086;2023-05-31T15:21:48;23.81;74.55
67364;HTU21D;54250;45.572;38.086;2023-05-31T15:24:15;23.81;74.45